createdAt,value
2023-03-31T19:03:45.392Z,97925.08
2023-03-31T19:06:17.835Z,97921.73
2023-03-31T19:08:49.735Z,97919.25
2023-03-31T19:11:21.294Z,97915.30
2023-03-31T19:13:55.513Z,97912.86
2023-03-31T19:16:27.607Z,97911.27
2023-03-31T19:18:59.456Z,97907.83
2023-03-31T19:21:32.704Z,97905.55
2023-03-31T19:24:06.012Z,97908.25
2023-03-31T19:26:37.991Z,97906.48
2023-03-31T19:29:09.600Z,97906.48
2023-03-31T19:31:41.596Z,97905.47
2023-03-31T19:34:14.148Z,97904.63
2023-03-31T19:36:46.285Z,97906.86
2023-03-31T19:39:18.155Z,97906.98
2023-03-31T19:41:49.854Z,97905.36
2023-03-31T19:44:21.831Z,97903.80
2023-03-31T19:46:53.399Z,97904.17
2023-03-31T19:49:24.958Z,97903.41
2023-03-31T19:51:56.618Z,97903.01
2023-03-31T19:54:28.967Z,97906.89
2023-03-31T19:57:00.609Z,97900.02
2023-03-31T19:59:32.282Z,97904.98
2023-03-31T20:02:05.578Z,97905.88
2023-03-31T20:04:37.640Z,97900.89
2023-03-31T20:07:10.998Z,97896.03
2023-03-31T20:09:42.895Z,97895.33
2023-03-31T20:12:14.649Z,97892.30
2023-03-31T20:14:46.327Z,97890.44
2023-03-31T20:17:20.055Z,97892.20
2023-03-31T20:19:51.553Z,97892.06
2023-03-31T20:22:23.201Z,97893.64
2023-03-31T20:24:54.917Z,97894.29
2023-03-31T20:27:26.634Z,97895.06
2023-03-31T20:29:58.246Z,97897.55
2023-03-31T20:32:30.063Z,97899.18
2023-03-31T20:35:02.935Z,97904.65
2023-03-31T20:37:35.413Z,97905.80
2023-03-31T20:40:08.073Z,97906.64
2023-03-31T20:42:39.897Z,97907.73
2023-03-31T20:45:11.899Z,97907.25
2023-03-31T20:47:44.893Z,97904.32
2023-03-31T20:50:19.054Z,97909.08
2023-03-31T20:52:51.920Z,97907.69
2023-03-31T20:55:27.484Z,97908.94
2023-03-31T20:57:59.132Z,97910.10
2023-03-31T21:00:30.850Z,97912.52
2023-03-31T21:03:03.336Z,97914.55
2023-03-31T21:05:48.747Z,97913.96
2023-03-31T21:08:24.003Z,97912.67
2023-03-31T21:11:04.748Z,97912.09
2023-03-31T21:13:36.443Z,97909.65
2023-03-31T21:16:08.466Z,97908.82
2023-03-31T21:18:40.136Z,97909.54
2023-03-31T21:21:15.022Z,97908.39
2023-03-31T21:23:47.428Z,97914.61
2023-03-31T21:26:20.076Z,97910.90
2023-03-31T21:28:54.733Z,97911.42
2023-03-31T21:31:28.754Z,97908.49
2023-03-31T21:34:02.502Z,97907.80
2023-03-31T21:36:34.911Z,97903.63
2023-03-31T21:39:06.599Z,97904.02
2023-03-31T21:41:41.138Z,97905.85
2023-03-31T21:44:14.409Z,97904.41
2023-03-31T21:46:58.178Z,97904.39
2023-03-31T21:49:30.059Z,97904.34
2023-03-31T21:52:01.726Z,97904.55
2023-03-31T21:54:33.407Z,97901.35
2023-03-31T21:57:04.974Z,97903.91
2023-03-31T21:59:36.972Z,97908.77
2023-03-31T22:02:08.613Z,97899.84
2023-03-31T22:04:40.444Z,97903.94
2023-03-31T22:07:14.443Z,97900.79
2023-03-31T22:09:46.066Z,97905.21
2023-03-31T22:12:17.663Z,97903.64
2023-03-31T22:14:49.256Z,97897.96
2023-03-31T22:17:21.176Z,97898.06
2023-03-31T22:19:53.088Z,97902.45
2023-03-31T22:22:24.851Z,97899.20
2023-03-31T22:24:56.478Z,97899.14
2023-03-31T22:27:28.122Z,97897.70
2023-03-31T22:30:00.867Z,97900.06
2023-03-31T22:32:32.508Z,97893.32
2023-03-31T22:35:04.293Z,97898.07
2023-03-31T22:37:36.392Z,97894.55
2023-03-31T22:40:08.859Z,97895.39
2023-03-31T22:42:40.435Z,97897.32
2023-03-31T22:45:12.057Z,97897.94
2023-03-31T22:47:43.687Z,97898.77
2023-03-31T22:50:15.700Z,97903.13
2023-03-31T22:52:47.414Z,97907.50
2023-03-31T22:55:19.004Z,97910.34
2023-03-31T22:57:50.830Z,97910.78
2023-03-31T23:00:22.642Z,97914.39
2023-03-31T23:02:54.307Z,97914.23
2023-03-31T23:05:27.046Z,97916.15
2023-03-31T23:07:58.690Z,97914.39
2023-03-31T23:10:32.096Z,97914.67
2023-03-31T23:13:05.337Z,97917.72
2023-03-31T23:15:37.075Z,97912.11
2023-03-31T23:18:08.752Z,97907.30
2023-03-31T23:20:41.057Z,97909.27
2023-03-31T23:23:12.650Z,97911.01
2023-03-31T23:25:44.298Z,97905.83
2023-03-31T23:28:16.809Z,97900.29
2023-03-31T23:30:56.839Z,97901.36
2023-03-31T23:33:29.309Z,97900.06
2023-03-31T23:36:06.079Z,97908.70
2023-03-31T23:38:37.734Z,97912.77
2023-03-31T23:41:09.954Z,97909.72
2023-03-31T23:43:41.914Z,97905.34
2023-03-31T23:46:13.726Z,97901.69
2023-03-31T23:48:45.557Z,97906.24
2023-03-31T23:51:17.793Z,97905.02
2023-03-31T23:53:50.464Z,97903.88
2023-03-31T23:56:22.545Z,97906.06
2023-03-31T23:58:54.673Z,97907.40
